sensor_id;sensor_type;location;lat;lon;timestamp;P1;durP1;ratioP1;P2;durP2;ratioP2
65706;SDS011;52423;43.512;5.220;2023-08-21T00:01:39;8.07;;;3.55;;
65706;SDS011;52423;43.512;5.220;2023-08-21T00:04:05;7.70;;;3.97;;
65706;SDS011;52423;43.512;5.220;2023-08-21T00:06:31;8.48;;;3.90;;
65706;SDS011;52423;43.512;5.220;2023-08-21T00:08:56;9.98;;;4.38;;
65706;SDS011;52423;43.512;5.220;2023-08-21T00:11:22;13.07;;;4.18;;
65706;SDS011;52423;43.512;5.220;2023-08-21T00:13:47;12.15;;;4.70;;
65706;SDS011;52423;43.512;5.220;2023-08-21T00:16:14;8.20;;;4.18;;
65706;SDS011;52423;43.512;5.220;2023-08-21T00:18:41;10.82;;;4.32;;
65706;SDS011;52423;43.512;5.220;2023-08-21T00:21:06;11.15;;;4.53;;
65706;SDS011;52423;43.512;5.220;2023-08-21T00:23:31;8.98;;;4.55;;
65706;SDS011;52423;43.512;5.220;2023-08-21T00:25:57;14.23;;;4.60;;
65706;SDS011;52423;43.512;5.220;2023-08-21T00:28:22;10.95;;;4.47;;
65706;SDS011;52423;43.512;5.220;2023-08-21T00:30:48;7.68;;;4.45;;
65706;SDS011;52423;43.512;5.220;2023-08-21T00:33:13;9.75;;;4.30;;
65706;SDS011;52423;43.512;5.220;2023-08-21T00:35:39;12.80;;;4.20;;
65706;SDS011;52423;43.512;5.220;2023-08-21T00:38:04;10.00;;;4.70;;
65706;SDS011;52423;43.512;5.220;2023-08-21T00:40:30;11.77;;;4.43;;
65706;SDS011;52423;43.512;5.220;2023-08-21T00:42:56;8.35;;;4.18;;
65706;SDS011;52423;43.512;5.220;2023-08-21T00:45:21;10.48;;;4.35;;
65706;SDS011;52423;43.512;5.220;2023-08-21T00:47:46;12.30;;;4.57;;
65706;SDS011;52423;43.512;5.220;2023-08-21T00:50:12;23.08;;;5.00;;
65706;SDS011;52423;43.512;5.220;2023-08-21T00:52:40;16.05;;;4.57;;
65706;SDS011;52423;43.512;5.220;2023-08-21T00:55:09;6.68;;;4.00;;
65706;SDS011;52423;43.512;5.220;2023-08-21T00:57:35;9.85;;;4.68;;
65706;SDS011;52423;43.512;5.220;2023-08-21T01:00:02;12.52;;;4.38;;
65706;SDS011;52423;43.512;5.220;2023-08-21T01:02:29;11.27;;;3.95;;
65706;SDS011;52423;43.512;5.220;2023-08-21T01:04:54;20.13;;;4.25;;
65706;SDS011;52423;43.512;5.220;2023-08-21T01:07:20;12.25;;;4.40;;
65706;SDS011;52423;43.512;5.220;2023-08-21T01:09:48;10.88;;;5.07;;
65706;SDS011;52423;43.512;5.220;2023-08-21T01:15:09;9.90;;;4.07;;
65706;SDS011;52423;43.512;5.220;2023-08-21T01:17:36;14.73;;;4.50;;
65706;SDS011;52423;43.512;5.220;2023-08-21T01:20:02;12.38;;;3.97;;
65706;SDS011;52423;43.512;5.220;2023-08-21T01:22:41;13.25;;;4.38;;
65706;SDS011;52423;43.512;5.220;2023-08-21T01:25:15;12.45;;;4.10;;
65706;SDS011;52423;43.512;5.220;2023-08-21T01:27:42;7.68;;;4.03;;
65706;SDS011;52423;43.512;5.220;2023-08-21T01:30:10;12.30;;;4.65;;
65706;SDS011;52423;43.512;5.220;2023-08-21T01:32:53;7.10;;;4.35;;
65706;SDS011;52423;43.512;5.220;2023-08-21T01:35:27;10.68;;;4.32;;
65706;SDS011;52423;43.512;5.220;2023-08-21T01:37:55;12.95;;;4.53;;
65706;SDS011;52423;43.512;5.220;2023-08-21T01:40:23;8.90;;;4.55;;
65706;SDS011;52423;43.512;5.220;2023-08-21T01:42:49;13.63;;;4.43;;
65706;SDS011;52423;43.512;5.220;2023-08-21T01:45:15;11.40;;;4.35;;
65706;SDS011;52423;43.512;5.220;2023-08-21T01:47:41;16.02;;;4.57;;
65706;SDS011;52423;43.512;5.220;2023-08-21T01:50:06;14.85;;;4.13;;
65706;SDS011;52423;43.512;5.220;2023-08-21T01:52:32;16.98;;;4.20;;
65706;SDS011;52423;43.512;5.220;2023-08-21T01:54:58;13.02;;;4.53;;
65706;SDS011;52423;43.512;5.220;2023-08-21T01:57:23;6.95;;;4.63;;
65706;SDS011;52423;43.512;5.220;2023-08-21T01:59:49;7.72;;;4.15;;
65706;SDS011;52423;43.512;5.220;2023-08-21T02:02:14;4.57;;;3.90;;
65706;SDS011;52423;43.512;5.220;2023-08-21T02:04:40;14.23;;;4.43;;
65706;SDS011;52423;43.512;5.220;2023-08-21T02:07:05;15.98;;;4.05;;
65706;SDS011;52423;43.512;5.220;2023-08-21T02:09:32;12.10;;;4.05;;
65706;SDS011;52423;43.512;5.220;2023-08-21T02:11:57;16.90;;;4.50;;
65706;SDS011;52423;43.512;5.220;2023-08-21T02:14:23;9.93;;;4.15;;
65706;SDS011;52423;43.512;5.220;2023-08-21T02:16:48;11.45;;;4.25;;
65706;SDS011;52423;43.512;5.220;2023-08-21T02:19:14;10.93;;;4.25;;
65706;SDS011;52423;43.512;5.220;2023-08-21T02:21:39;10.90;;;4.53;;
65706;SDS011;52423;43.512;5.220;2023-08-21T02:24:04;8.95;;;3.95;;
65706;SDS011;52423;43.512;5.220;2023-08-21T02:26:30;16.00;;;4.35;;
65706;SDS011;52423;43.512;5.220;2023-08-21T02:28:55;11.18;;;4.07;;
65706;SDS011;52423;43.512;5.220;2023-08-21T02:31:20;13.00;;;4.00;;
65706;SDS011;52423;43.512;5.220;2023-08-21T02:33:46;15.60;;;4.15;;
65706;SDS011;52423;43.512;5.220;2023-08-21T02:36:11;13.98;;;3.83;;
65706;SDS011;52423;43.512;5.220;2023-08-21T02:38:37;13.57;;;4.15;;
65706;SDS011;52423;43.512;5.220;2023-08-21T02:41:02;21.60;;;4.30;;
65706;SDS011;52423;43.512;5.220;2023-08-21T02:43:27;17.27;;;4.32;;
65706;SDS011;52423;43.512;5.220;2023-08-21T02:45:53;17.35;;;4.30;;
65706;SDS011;52423;43.512;5.220;2023-08-21T02:48:18;11.95;;;4.07;;
65706;SDS011;52423;43.512;5.220;2023-08-21T02:50:43;10.07;;;3.70;;
65706;SDS011;52423;43.512;5.220;2023-08-21T02:53:09;14.93;;;3.78;;
65706;SDS011;52423;43.512;5.220;2023-08-21T02:55:34;19.38;;;4.32;;
65706;SDS011;52423;43.512;5.220;2023-08-21T02:58:00;14.18;;;4.18;;
65706;SDS011;52423;43.512;5.220;2023-08-21T03:00:25;20.50;;;4.40;;
65706;SDS011;52423;43.512;5.220;2023-08-21T03:02:51;16.33;;;4.03;;
65706;SDS011;52423;43.512;5.220;2023-08-21T03:05:16;8.65;;;3.63;;
65706;SDS011;52423;43.512;5.220;2023-08-21T03:07:42;17.80;;;4.85;;
65706;SDS011;52423;43.512;5.220;2023-08-21T03:10:07;15.52;;;4.38;;
65706;SDS011;52423;43.512;5.220;2023-08-21T03:12:33;17.30;;;4.15;;
65706;SDS011;52423;43.512;5.220;2023-08-21T03:14:59;10.90;;;3.58;;
65706;SDS011;52423;43.512;5.220;2023-08-21T03:17:25;18.13;;;4.15;;
65706;SDS011;52423;43.512;5.220;2023-08-21T03:19:50;12.68;;;3.90;;
65706;SDS011;52423;43.512;5.220;2023-08-21T03:22:15;15.32;;;4.25;;
65706;SDS011;52423;43.512;5.220;2023-08-21T03:24:41;22.13;;;5.05;;
65706;SDS011;52423;43.512;5.220;2023-08-21T03:27:06;10.73;;;4.50;;
65706;SDS011;52423;43.512;5.220;2023-08-21T03:29:32;14.93;;;4.07;;
65706;SDS011;52423;43.512;5.220;2023-08-21T03:31:57;20.63;;;4.80;;
65706;SDS011;52423;43.512;5.220;2023-08-21T03:34:23;13.45;;;3.78;;
65706;SDS011;52423;43.512;5.220;2023-08-21T03:36:48;18.67;;;4.03;;
65706;SDS011;52423;43.512;5.220;2023-08-21T03:39:14;17.92;;;4.03;;
65706;SDS011;52423;43.512;5.220;2023-08-21T03:41:39;10.00;;;3.92;;
65706;SDS011;52423;43.512;5.220;2023-08-21T03:44:04;15.13;;;4.15;;
65706;SDS011;52423;43.512;5.220;2023-08-21T03:46:30;14.70;;;3.78;;
65706;SDS011;52423;43.512;5.220;2023-08-21T03:48:55;15.68;;;4.00;;
65706;SDS011;52423;43.512;5.220;2023-08-21T03:51:21;15.35;;;3.72;;
65706;SDS011;52423;43.512;5.220;2023-08-21T03:53:46;10.80;;;3.83;;
65706;SDS011;52423;43.512;5.220;2023-08-21T03:56:12;13.27;;;3.42;;
65706;SDS011;52423;43.512;5.220;2023-08-21T03:58:37;13.23;;;4.20;;
65706;SDS011;52423;43.512;5.220;2023-08-21T04:01:02;9.05;;;3.90;;
65706;SDS011;52423;43.512;5.220;2023-08-21T04:03:28;15.95;;;4.45;;
65706;SDS011;52423;43.512;5.220;2023-08-21T04:05:53;17.08;;;4.50;;
65706;SDS011;52423;43.512;5.220;2023-08-21T04:08:21;14.52;;;3.72;;
65706;SDS011;52423;43.512;5.220;2023-08-21T04:10:46;18.88;;;4.35;;
65706;SDS011;52423;43.512;5.220;2023-08-21T04:13:12;15.88;;;4.00;;
65706;SDS011;52423;43.512;5.220;2023-08-21T04:15:37;10.45;;;4.15;;
65706;SDS011;52423;43.512;5.220;2023-08-21T04:18:03;14.70;;;4.30;;
65706;SDS011;52423;43.512;5.220;2023-08-21T04:20:29;7.35;;;3.67;;
65706;SDS011;52423;43.512;5.220;2023-08-21T04:22:54;15.98;;;4.03;;
65706;SDS011;52423;43.512;5.220;2023-08-21T04:25:20;12.57;;;4.13;;
65706;SDS011;52423;43.512;5.220;2023-08-21T04:27:45;20.55;;;4.68;;
65706;SDS011;52423;43.512;5.220;2023-08-21T04:30:11;12.30;;;4.05;;
65706;SDS011;52423;43.512;5.220;2023-08-21T04:32:37;13.85;;;4.15;;
65706;SDS011;52423;43.512;5.220;2023-08-21T04:35:02;17.60;;;4.75;;
65706;SDS011;52423;43.512;5.220;2023-08-21T04:37:28;16.17;;;3.85;;
65706;SDS011;52423;43.512;5.220;2023-08-21T04:39:53;23.77;;;4.43;;
65706;SDS011;52423;43.512;5.220;2023-08-21T04:42:19;14.93;;;4.28;;
65706;SDS011;52423;43.512;5.220;2023-08-21T04:44:45;13.05;;;4.95;;
65706;SDS011;52423;43.512;5.220;2023-08-21T04:47:21;10.88;;;4.50;;
65706;SDS011;52423;43.512;5.220;2023-08-21T04:49:53;11.07;;;4.15;;
65706;SDS011;52423;43.512;5.220;2023-08-21T04:52:20;20.35;;;4.53;;
65706;SDS011;52423;43.512;5.220;2023-08-21T04:54:46;18.23;;;3.97;;
65706;SDS011;52423;43.512;5.220;2023-08-21T04:57:12;15.27;;;3.97;;
65706;SDS011;52423;43.512;5.220;2023-08-21T04:59:38;9.27;;;4.10;;
65706;SDS011;52423;43.512;5.220;2023-08-21T05:02:04;10.52;;;4.25;;
65706;SDS011;52423;43.512;5.220;2023-08-21T05:04:30;11.70;;;4.15;;
65706;SDS011;52423;43.512;5.220;2023-08-21T05:06:55;10.57;;;4.07;;
65706;SDS011;52423;43.512;5.220;2023-08-21T05:09:21;22.42;;;4.13;;
65706;SDS011;52423;43.512;5.220;2023-08-21T05:11:46;13.73;;;4.03;;
65706;SDS011;52423;43.512;5.220;2023-08-21T05:14:11;19.55;;;4.47;;
65706;SDS011;52423;43.512;5.220;2023-08-21T05:16:37;20.67;;;4.60;;
65706;SDS011;52423;43.512;5.220;2023-08-21T05:19:02;27.65;;;4.35;;
65706;SDS011;52423;43.512;5.220;2023-08-21T05:21:28;15.98;;;3.88;;
65706;SDS011;52423;43.512;5.220;2023-08-21T05:23:54;13.52;;;4.55;;
65706;SDS011;52423;43.512;5.220;2023-08-21T05:26:19;8.05;;;4.15;;
65706;SDS011;52423;43.512;5.220;2023-08-21T05:28:45;14.77;;;4.35;;
65706;SDS011;52423;43.512;5.220;2023-08-21T05:31:10;13.15;;;4.80;;
65706;SDS011;52423;43.512;5.220;2023-08-21T05:33:36;11.40;;;4.45;;
65706;SDS011;52423;43.512;5.220;2023-08-21T05:36:01;7.95;;;4.00;;
65706;SDS011;52423;43.512;5.220;2023-08-21T05:38:27;12.23;;;4.10;;
65706;SDS011;52423;43.512;5.220;2023-08-21T05:40:52;7.70;;;4.32;;
65706;SDS011;52423;43.512;5.220;2023-08-21T05:43:18;15.75;;;4.22;;
65706;SDS011;52423;43.512;5.220;2023-08-21T05:45:43;10.15;;;3.92;;
65706;SDS011;52423;43.512;5.220;2023-08-21T05:48:09;12.32;;;3.90;;
65706;SDS011;52423;43.512;5.220;2023-08-21T05:50:34;12.10;;;4.65;;
65706;SDS011;52423;43.512;5.220;2023-08-21T05:53:02;9.27;;;4.32;;
65706;SDS011;52423;43.512;5.220;2023-08-21T05:55:28;18.58;;;4.68;;
65706;SDS011;52423;43.512;5.220;2023-08-21T05:57:54;15.88;;;4.57;;
65706;SDS011;52423;43.512;5.220;2023-08-21T06:00:19;20.73;;;4.70;;
65706;SDS011;52423;43.512;5.220;2023-08-21T06:02:45;23.83;;;5.35;;
65706;SDS011;52423;43.512;5.220;2023-08-21T06:05:10;20.80;;;5.05;;
65706;SDS011;52423;43.512;5.220;2023-08-21T06:07:36;18.38;;;4.82;;
65706;SDS011;52423;43.512;5.220;2023-08-21T06:10:01;16.52;;;5.10;;
65706;SDS011;52423;43.512;5.220;2023-08-21T06:12:26;17.17;;;4.80;;
65706;SDS011;52423;43.512;5.220;2023-08-21T06:14:52;15.00;;;5.28;;
65706;SDS011;52423;43.512;5.220;2023-08-21T06:17:17;21.73;;;5.00;;
65706;SDS011;52423;43.512;5.220;2023-08-21T06:19:43;12.75;;;4.57;;
65706;SDS011;52423;43.512;5.220;2023-08-21T06:22:09;13.80;;;5.00;;
65706;SDS011;52423;43.512;5.220;2023-08-21T06:24:34;16.10;;;4.82;;
65706;SDS011;52423;43.512;5.220;2023-08-21T06:26:59;16.73;;;5.30;;
65706;SDS011;52423;43.512;5.220;2023-08-21T06:29:25;17.60;;;4.90;;
65706;SDS011;52423;43.512;5.220;2023-08-21T06:31:50;21.90;;;5.05;;
65706;SDS011;52423;43.512;5.220;2023-08-21T06:34:16;14.80;;;5.50;;
65706;SDS011;52423;43.512;5.220;2023-08-21T06:36:41;10.93;;;4.93;;
65706;SDS011;52423;43.512;5.220;2023-08-21T06:39:07;15.77;;;4.88;;
65706;SDS011;52423;43.512;5.220;2023-08-21T06:41:32;14.52;;;4.53;;
65706;SDS011;52423;43.512;5.220;2023-08-21T06:43:57;14.80;;;5.07;;
65706;SDS011;52423;43.512;5.220;2023-08-21T06:46:23;11.32;;;4.80;;
65706;SDS011;52423;43.512;5.220;2023-08-21T06:48:48;15.10;;;4.75;;
65706;SDS011;52423;43.512;5.220;2023-08-21T06:51:15;10.02;;;4.47;;
65706;SDS011;52423;43.512;5.220;2023-08-21T06:53:41;14.02;;;4.60;;
65706;SDS011;52423;43.512;5.220;2023-08-21T06:56:06;13.48;;;4.75;;
65706;SDS011;52423;43.512;5.220;2023-08-21T06:58:32;16.08;;;5.35;;
65706;SDS011;52423;43.512;5.220;2023-08-21T07:00:57;11.43;;;4.53;;
65706;SDS011;52423;43.512;5.220;2023-08-21T07:03:24;18.08;;;4.30;;
65706;SDS011;52423;43.512;5.220;2023-08-21T07:05:53;10.73;;;4.57;;
65706;SDS011;52423;43.512;5.220;2023-08-21T07:08:25;11.20;;;4.53;;
65706;SDS011;52423;43.512;5.220;2023-08-21T07:10:51;11.07;;;4.63;;
65706;SDS011;52423;43.512;5.220;2023-08-21T07:13:18;9.65;;;4.35;;
65706;SDS011;52423;43.512;5.220;2023-08-21T07:15:44;17.40;;;4.90;;
65706;SDS011;52423;43.512;5.220;2023-08-21T07:18:09;11.73;;;5.05;;
65706;SDS011;52423;43.512;5.220;2023-08-21T07:20:35;13.45;;;4.50;;
65706;SDS011;52423;43.512;5.220;2023-08-21T07:23:00;17.95;;;4.68;;
65706;SDS011;52423;43.512;5.220;2023-08-21T07:25:26;10.98;;;4.72;;
65706;SDS011;52423;43.512;5.220;2023-08-21T07:27:53;11.45;;;4.85;;
65706;SDS011;52423;43.512;5.220;2023-08-21T07:30:18;6.63;;;4.60;;
65706;SDS011;52423;43.512;5.220;2023-08-21T07:32:44;14.02;;;5.03;;
65706;SDS011;52423;43.512;5.220;2023-08-21T07:35:10;16.77;;;4.32;;
65706;SDS011;52423;43.512;5.220;2023-08-21T07:37:36;8.20;;;4.90;;
65706;SDS011;52423;43.512;5.220;2023-08-21T07:40:01;17.05;;;4.82;;
65706;SDS011;52423;43.512;5.220;2023-08-21T07:42:27;11.35;;;4.85;;
65706;SDS011;52423;43.512;5.220;2023-08-21T07:44:52;9.95;;;4.88;;
65706;SDS011;52423;43.512;5.220;2023-08-21T07:47:18;8.40;;;5.15;;
65706;SDS011;52423;43.512;5.220;2023-08-21T07:49:43;15.73;;;5.72;;
65706;SDS011;52423;43.512;5.220;2023-08-21T07:52:09;12.05;;;5.15;;
65706;SDS011;52423;43.512;5.220;2023-08-21T07:54:34;9.52;;;5.10;;
65706;SDS011;52423;43.512;5.220;2023-08-21T07:57:00;17.15;;;5.40;;
65706;SDS011;52423;43.512;5.220;2023-08-21T07:59:25;13.20;;;5.55;;
65706;SDS011;52423;43.512;5.220;2023-08-21T08:01:51;13.90;;;5.18;;
65706;SDS011;52423;43.512;5.220;2023-08-21T08:04:17;13.25;;;5.15;;
65706;SDS011;52423;43.512;5.220;2023-08-21T08:06:42;13.60;;;5.25;;
65706;SDS011;52423;43.512;5.220;2023-08-21T08:09:08;6.13;;;4.88;;
65706;SDS011;52423;43.512;5.220;2023-08-21T08:11:33;15.65;;;5.80;;
65706;SDS011;52423;43.512;5.220;2023-08-21T08:13:59;14.48;;;5.50;;
65706;SDS011;52423;43.512;5.220;2023-08-21T08:16:24;18.35;;;5.57;;
65706;SDS011;52423;43.512;5.220;2023-08-21T08:18:49;24.05;;;6.57;;
65706;SDS011;52423;43.512;5.220;2023-08-21T08:21:15;23.52;;;5.80;;
65706;SDS011;52423;43.512;5.220;2023-08-21T08:23:41;22.17;;;6.40;;
65706;SDS011;52423;43.512;5.220;2023-08-21T08:26:06;21.42;;;5.90;;
65706;SDS011;52423;43.512;5.220;2023-08-21T08:28:33;20.60;;;6.63;;
65706;SDS011;52423;43.512;5.220;2023-08-21T08:30:59;28.08;;;7.05;;
65706;SDS011;52423;43.512;5.220;2023-08-21T08:33:25;18.52;;;6.68;;
65706;SDS011;52423;43.512;5.220;2023-08-21T08:35:51;19.45;;;6.25;;
65706;SDS011;52423;43.512;5.220;2023-08-21T08:38:17;18.08;;;6.20;;
65706;SDS011;52423;43.512;5.220;2023-08-21T08:40:44;28.83;;;6.75;;
65706;SDS011;52423;43.512;5.220;2023-08-21T08:43:13;18.52;;;6.53;;
65706;SDS011;52423;43.512;5.220;2023-08-21T08:45:40;19.20;;;6.10;;
65706;SDS011;52423;43.512;5.220;2023-08-21T08:48:06;19.08;;;5.88;;
65706;SDS011;52423;43.512;5.220;2023-08-21T08:50:33;28.13;;;6.57;;
65706;SDS011;52423;43.512;5.220;2023-08-21T08:52:59;16.50;;;6.53;;
65706;SDS011;52423;43.512;5.220;2023-08-21T08:55:25;25.95;;;6.00;;
65706;SDS011;52423;43.512;5.220;2023-08-21T08:57:51;20.20;;;6.22;;
65706;SDS011;52423;43.512;5.220;2023-08-21T09:00:17;23.63;;;5.78;;
65706;SDS011;52423;43.512;5.220;2023-08-21T09:02:43;22.38;;;6.13;;
65706;SDS011;52423;43.512;5.220;2023-08-21T09:05:09;20.92;;;6.25;;
65706;SDS011;52423;43.512;5.220;2023-08-21T09:07:35;20.45;;;5.88;;
65706;SDS011;52423;43.512;5.220;2023-08-21T09:10:01;26.83;;;7.60;;
65706;SDS011;52423;43.512;5.220;2023-08-21T09:12:28;15.27;;;6.28;;
65706;SDS011;52423;43.512;5.220;2023-08-21T09:14:56;12.32;;;5.82;;
65706;SDS011;52423;43.512;5.220;2023-08-21T09:17:24;31.35;;;7.00;;
65706;SDS011;52423;43.512;5.220;2023-08-21T09:19:50;16.73;;;6.47;;
65706;SDS011;52423;43.512;5.220;2023-08-21T09:22:17;17.33;;;5.28;;
65706;SDS011;52423;43.512;5.220;2023-08-21T09:27:36;14.70;;;5.90;;
65706;SDS011;52423;43.512;5.220;2023-08-21T09:30:04;13.60;;;5.18;;
65706;SDS011;52423;43.512;5.220;2023-08-21T09:32:30;13.65;;;5.65;;
65706;SDS011;52423;43.512;5.220;2023-08-21T09:34:55;19.15;;;5.90;;
65706;SDS011;52423;43.512;5.220;2023-08-21T09:37:21;12.88;;;5.47;;
65706;SDS011;52423;43.512;5.220;2023-08-21T09:39:54;14.40;;;5.53;;
65706;SDS011;52423;43.512;5.220;2023-08-21T09:44:51;17.20;;;5.53;;
65706;SDS011;52423;43.512;5.220;2023-08-21T09:47:16;15.55;;;5.95;;
65706;SDS011;52423;43.512;5.220;2023-08-21T09:49:42;17.70;;;5.95;;
65706;SDS011;52423;43.512;5.220;2023-08-21T09:52:08;18.00;;;5.88;;
65706;SDS011;52423;43.512;5.220;2023-08-21T09:54:38;20.77;;;4.93;;
65706;SDS011;52423;43.512;5.220;2023-08-21T09:57:04;22.40;;;6.15;;
65706;SDS011;52423;43.512;5.220;2023-08-21T09:59:32;18.90;;;5.80;;
65706;SDS011;52423;43.512;5.220;2023-08-21T10:01:59;11.02;;;5.03;;
65706;SDS011;52423;43.512;5.220;2023-08-21T10:04:26;17.33;;;5.10;;
65706;SDS011;52423;43.512;5.220;2023-08-21T10:06:53;10.55;;;4.90;;
65706;SDS011;52423;43.512;5.220;2023-08-21T10:09:21;15.00;;;4.75;;
65706;SDS011;52423;43.512;5.220;2023-08-21T10:11:48;14.57;;;4.78;;
65706;SDS011;52423;43.512;5.220;2023-08-21T10:14:13;8.80;;;4.60;;
65706;SDS011;52423;43.512;5.220;2023-08-21T10:16:39;12.80;;;4.90;;
65706;SDS011;52423;43.512;5.220;2023-08-21T10:19:06;9.98;;;4.78;;
65706;SDS011;52423;43.512;5.220;2023-08-21T10:21:35;18.15;;;5.35;;
65706;SDS011;52423;43.512;5.220;2023-08-21T10:24:02;19.95;;;5.00;;
65706;SDS011;52423;43.512;5.220;2023-08-21T10:26:28;13.60;;;5.10;;
65706;SDS011;52423;43.512;5.220;2023-08-21T10:28:54;17.15;;;4.90;;
65706;SDS011;52423;43.512;5.220;2023-08-21T10:31:33;19.35;;;4.93;;
65706;SDS011;52423;43.512;5.220;2023-08-21T10:34:00;13.32;;;4.93;;
65706;SDS011;52423;43.512;5.220;2023-08-21T10:37:02;21.00;;;5.18;;
65706;SDS011;52423;43.512;5.220;2023-08-21T10:39:26;16.35;;;4.80;;
65706;SDS011;52423;43.512;5.220;2023-08-21T10:41:55;25.63;;;4.93;;
65706;SDS011;52423;43.512;5.220;2023-08-21T10:50:00;14.40;;;4.95;;
65706;SDS011;52423;43.512;5.220;2023-08-21T10:52:39;18.63;;;4.88;;
65706;SDS011;52423;43.512;5.220;2023-08-21T10:55:07;29.55;;;5.65;;
65706;SDS011;52423;43.512;5.220;2023-08-21T10:57:36;24.40;;;5.53;;
65706;SDS011;52423;43.512;5.220;2023-08-21T11:02:29;20.08;;;5.15;;
65706;SDS011;52423;43.512;5.220;2023-08-21T11:04:55;17.88;;;5.57;;
65706;SDS011;52423;43.512;5.220;2023-08-21T11:07:21;15.40;;;5.30;;
65706;SDS011;52423;43.512;5.220;2023-08-21T11:09:48;21.45;;;6.13;;
65706;SDS011;52423;43.512;5.220;2023-08-21T11:12:15;26.88;;;5.47;;
65706;SDS011;52423;43.512;5.220;2023-08-21T11:14:42;24.02;;;6.20;;
65706;SDS011;52423;43.512;5.220;2023-08-21T11:17:09;19.38;;;5.78;;
65706;SDS011;52423;43.512;5.220;2023-08-21T11:19:35;30.08;;;5.65;;
65706;SDS011;52423;43.512;5.220;2023-08-21T11:22:01;15.27;;;5.35;;
65706;SDS011;52423;43.512;5.220;2023-08-21T11:27:06;17.13;;;5.55;;
65706;SDS011;52423;43.512;5.220;2023-08-21T11:29:36;22.30;;;5.20;;
65706;SDS011;52423;43.512;5.220;2023-08-21T11:32:07;15.48;;;4.95;;
65706;SDS011;52423;43.512;5.220;2023-08-21T11:34:37;10.45;;;5.50;;
65706;SDS011;52423;43.512;5.220;2023-08-21T11:37:03;20.25;;;5.45;;
65706;SDS011;52423;43.512;5.220;2023-08-21T11:39:47;11.73;;;5.15;;
65706;SDS011;52423;43.512;5.220;2023-08-21T11:42:14;10.65;;;5.20;;
65706;SDS011;52423;43.512;5.220;2023-08-21T11:44:44;15.95;;;5.50;;
65706;SDS011;52423;43.512;5.220;2023-08-21T11:47:17;20.75;;;5.40;;
65706;SDS011;52423;43.512;5.220;2023-08-21T11:49:44;11.63;;;5.30;;
65706;SDS011;52423;43.512;5.220;2023-08-21T11:52:13;16.10;;;5.57;;
65706;SDS011;52423;43.512;5.220;2023-08-21T11:54:39;11.32;;;5.22;;
65706;SDS011;52423;43.512;5.220;2023-08-21T11:57:06;10.70;;;5.70;;
65706;SDS011;52423;43.512;5.220;2023-08-21T11:59:33;17.55;;;5.35;;
65706;SDS011;52423;43.512;5.220;2023-08-21T12:01:58;11.18;;;5.25;;
65706;SDS011;52423;43.512;5.220;2023-08-21T12:04:24;9.75;;;5.38;;
65706;SDS011;52423;43.512;5.220;2023-08-21T12:06:50;9.45;;;4.85;;
65706;SDS011;52423;43.512;5.220;2023-08-21T12:09:15;12.30;;;5.18;;
65706;SDS011;52423;43.512;5.220;2023-08-21T12:11:41;8.10;;;4.85;;
65706;SDS011;52423;43.512;5.220;2023-08-21T12:14:06;19.25;;;5.30;;
65706;SDS011;52423;43.512;5.220;2023-08-21T12:16:32;10.60;;;5.68;;
65706;SDS011;52423;43.512;5.220;2023-08-21T12:18:57;10.38;;;4.75;;
65706;SDS011;52423;43.512;5.220;2023-08-21T12:21:23;18.25;;;5.22;;
65706;SDS011;52423;43.512;5.220;2023-08-21T12:23:49;22.25;;;5.75;;
65706;SDS011;52423;43.512;5.220;2023-08-21T12:26:15;12.43;;;5.05;;
65706;SDS011;52423;43.512;5.220;2023-08-21T12:28:46;9.32;;;5.00;;
65706;SDS011;52423;43.512;5.220;2023-08-21T12:31:14;10.27;;;5.45;;
65706;SDS011;52423;43.512;5.220;2023-08-21T12:33:40;6.47;;;5.30;;
65706;SDS011;52423;43.512;5.220;2023-08-21T12:36:05;11.52;;;5.07;;
65706;SDS011;52423;43.512;5.220;2023-08-21T12:38:31;11.50;;;5.13;;
65706;SDS011;52423;43.512;5.220;2023-08-21T12:40:57;9.95;;;5.15;;
65706;SDS011;52423;43.512;5.220;2023-08-21T12:43:23;11.25;;;5.53;;
65706;SDS011;52423;43.512;5.220;2023-08-21T12:45:48;6.82;;;5.40;;
65706;SDS011;52423;43.512;5.220;2023-08-21T12:48:14;12.93;;;5.35;;
65706;SDS011;52423;43.512;5.220;2023-08-21T12:50:39;11.95;;;5.43;;
65706;SDS011;52423;43.512;5.220;2023-08-21T12:53:05;10.02;;;5.00;;
65706;SDS011;52423;43.512;5.220;2023-08-21T12:55:30;12.18;;;5.22;;
65706;SDS011;52423;43.512;5.220;2023-08-21T12:57:56;19.75;;;5.72;;
65706;SDS011;52423;43.512;5.220;2023-08-21T13:00:22;11.98;;;6.07;;
65706;SDS011;52423;43.512;5.220;2023-08-21T13:02:47;21.33;;;6.13;;
65706;SDS011;52423;43.512;5.220;2023-08-21T13:05:13;17.65;;;5.35;;
65706;SDS011;52423;43.512;5.220;2023-08-21T13:07:39;15.05;;;5.93;;
65706;SDS011;52423;43.512;5.220;2023-08-21T13:10:04;15.00;;;6.40;;
65706;SDS011;52423;43.512;5.220;2023-08-21T13:12:30;22.02;;;5.78;;
65706;SDS011;52423;43.512;5.220;2023-08-21T13:14:56;25.67;;;6.43;;
65706;SDS011;52423;43.512;5.220;2023-08-21T13:17:22;23.48;;;6.18;;
65706;SDS011;52423;43.512;5.220;2023-08-21T13:19:47;15.63;;;5.55;;
65706;SDS011;52423;43.512;5.220;2023-08-21T13:22:15;13.65;;;5.55;;
65706;SDS011;52423;43.512;5.220;2023-08-21T13:24:42;11.13;;;5.45;;
65706;SDS011;52423;43.512;5.220;2023-08-21T13:27:07;16.27;;;5.30;;
65706;SDS011;52423;43.512;5.220;2023-08-21T13:29:32;14.15;;;4.88;;
65706;SDS011;52423;43.512;5.220;2023-08-21T13:31:58;12.40;;;5.00;;
65706;SDS011;52423;43.512;5.220;2023-08-21T13:34:24;17.20;;;5.40;;
65706;SDS011;52423;43.512;5.220;2023-08-21T13:36:49;9.95;;;5.38;;
65706;SDS011;52423;43.512;5.220;2023-08-21T13:39:15;16.50;;;6.00;;
65706;SDS011;52423;43.512;5.220;2023-08-21T13:41:41;10.23;;;5.50;;
65706;SDS011;52423;43.512;5.220;2023-08-21T13:44:06;14.45;;;5.35;;
65706;SDS011;52423;43.512;5.220;2023-08-21T13:46:33;16.30;;;5.50;;
65706;SDS011;52423;43.512;5.220;2023-08-21T13:48:59;14.90;;;5.57;;
65706;SDS011;52423;43.512;5.220;2023-08-21T13:51:24;13.57;;;5.50;;
65706;SDS011;52423;43.512;5.220;2023-08-21T13:53:50;18.23;;;5.47;;
65706;SDS011;52423;43.512;5.220;2023-08-21T13:56:16;9.43;;;5.00;;
65706;SDS011;52423;43.512;5.220;2023-08-21T13:58:41;14.40;;;4.80;;
65706;SDS011;52423;43.512;5.220;2023-08-21T14:01:07;13.60;;;5.30;;
65706;SDS011;52423;43.512;5.220;2023-08-21T14:03:33;17.27;;;5.53;;
65706;SDS011;52423;43.512;5.220;2023-08-21T14:05:59;8.27;;;4.65;;
65706;SDS011;52423;43.512;5.220;2023-08-21T14:08:24;13.85;;;5.18;;
65706;SDS011;52423;43.512;5.220;2023-08-21T14:10:49;24.50;;;5.10;;
65706;SDS011;52423;43.512;5.220;2023-08-21T14:13:15;21.63;;;4.72;;
65706;SDS011;52423;43.512;5.220;2023-08-21T14:15:40;11.35;;;5.07;;
65706;SDS011;52423;43.512;5.220;2023-08-21T14:18:06;18.13;;;4.75;;
65706;SDS011;52423;43.512;5.220;2023-08-21T14:20:31;30.20;;;5.95;;
65706;SDS011;52423;43.512;5.220;2023-08-21T14:22:57;19.90;;;5.00;;
65706;SDS011;52423;43.512;5.220;2023-08-21T14:25:22;14.52;;;5.13;;
65706;SDS011;52423;43.512;5.220;2023-08-21T14:27:48;10.52;;;5.18;;
65706;SDS011;52423;43.512;5.220;2023-08-21T14:30:14;12.30;;;5.07;;
65706;SDS011;52423;43.512;5.220;2023-08-21T14:32:39;13.50;;;5.60;;
65706;SDS011;52423;43.512;5.220;2023-08-21T14:35:05;19.40;;;5.60;;
65706;SDS011;52423;43.512;5.220;2023-08-21T14:37:35;17.63;;;5.55;;
65706;SDS011;52423;43.512;5.220;2023-08-21T14:40:01;22.67;;;5.05;;
65706;SDS011;52423;43.512;5.220;2023-08-21T14:42:32;13.55;;;5.00;;
65706;SDS011;52423;43.512;5.220;2023-08-21T14:44:58;17.77;;;5.80;;
65706;SDS011;52423;43.512;5.220;2023-08-21T14:47:23;27.20;;;5.72;;
65706;SDS011;52423;43.512;5.220;2023-08-21T14:49:49;14.70;;;5.28;;